Aviation Digital Data Service (ADDS)

Output produced by METARs form (1117 UTC 25 July 2014)
found at http://aviationweather.gov/adds/metars/
 
KLGA 250830Z 2509/2606 01007KT P6SM SCT080 SCT250 
     FM252000 18010KT P6SM FEW050 
     FM260200 21007KT P6SM FEW250